Time;durP1;ratioP1;P1;durP2;ratioP2;P2;SDS_P1;SDS_P2;PMS_P1;PMS_P2;Temp;Humidity;BMP_temperature;BMP_pressure;BME280_temperature;BME280_humidity;BME280_pressure;Samples;Min_cycle;Max_cycle;Signal;HPM_P1;HPM_P2
2022/11/26 00:06:02;;;;;;;110.30;64.20;;;;;;;2.09;100.00;99977.45;433988;1289;143136;-63
2022/11/26 00:16:10;;;;;;;124.70;67.70;;;;;;;2.11;100.00;99978.98;434752;1287;142717;-64
2022/11/26 00:26:18;;;;;;;141.30;75.30;;;;;;;2.07;100.00;99983.19;434702;1288;144597;-64
2022/11/26 00:36:26;;;;;;;124.20;69.70;;;;;;;2.08;100.00;99992.34;434116;1292;143733;-63
2022/11/26 00:46:32;;;;;;;125.80;67.60;;;;;;;2.11;100.00;100002.64;434847;1286;144586;-64
2022/11/26 00:56:38;;;;;;;98.70;57.30;;;;;;;2.20;100.00;100007.79;434798;1285;143533;-64
2022/11/26 01:06:45;;;;;;;108.20;59.90;;;;;;;2.23;100.00;100014.10;434466;1294;212626;-63
2022/11/26 01:16:53;;;;;;;110.10;58.70;;;;;;;2.18;100.00;100020.11;431864;1287;143361;-63
2022/11/26 01:26:59;;;;;;;112.60;62.60;;;;;;;2.17;100.00;100022.36;433960;1289;142556;-63
2022/11/26 01:37:10;;;;;;;126.20;64.60;;;;;;;2.20;100.00;100018.66;434779;1285;143326;-63
2022/11/26 01:47:22;;;;;;;144.20;68.20;;;;;;;2.20;100.00;100021.27;434777;1289;143060;-63
2022/11/26 01:57:32;;;;;;;120.10;65.70;;;;;;;2.26;100.00;100025.98;425391;1285;199991;-63
2022/11/26 02:07:38;;;;;;;122.30;66.50;;;;;;;2.23;100.00;100028.98;434827;1288;144315;-64
2022/11/26 02:17:48;;;;;;;147.10;73.30;;;;;;;2.22;100.00;100027.09;420833;1285;143213;-63
2022/11/26 02:28:20;;;;;;;132.80;70.80;;;;;;;2.21;100.00;100023.83;434853;1293;143690;-63
2022/11/26 02:38:29;;;;;;;122.00;66.40;;;;;;;2.19;100.00;100025.95;434833;1285;144075;-64
2022/11/26 02:48:39;;;;;;;123.20;64.50;;;;;;;2.25;100.00;100036.88;432010;1294;143764;-64
2022/11/26 02:58:45;;;;;;;107.90;58.20;;;;;;;2.33;100.00;100036.00;434773;1288;143002;-63
2022/11/26 03:08:50;;;;;;;114.50;58.10;;;;;;;2.37;100.00;100045.07;434158;1284;143848;-63
2022/11/26 03:18:56;;;;;;;108.60;63.90;;;;;;;2.40;100.00;100044.83;431879;1293;143034;-63
2022/11/26 03:29:01;;;;;;;133.10;70.70;;;;;;;2.39;100.00;100046.92;434823;1293;142260;-63
2022/11/26 03:39:07;;;;;;;134.50;65.30;;;;;;;2.36;100.00;100048.54;434087;1285;146102;-63
2022/11/26 03:49:13;;;;;;;112.30;59.10;;;;;;;2.34;100.00;100051.71;434725;1290;143884;-63
2022/11/26 03:59:18;;;;;;;94.00;54.50;;;;;;;2.33;100.00;100053.09;434799;1288;143151;-63
2022/11/26 04:09:24;;;;;;;95.40;53.80;;;;;;;2.33;100.00;100062.26;434183;1289;142820;-63
2022/11/26 04:19:30;;;;;;;83.10;47.80;;;;;;;2.38;100.00;100076.67;426951;1287;142793;-64
2022/11/26 04:29:36;;;;;;;81.30;44.30;;;;;;;2.42;100.00;100087.11;434845;1293;143365;-64
2022/11/26 04:39:42;;;;;;;97.60;47.70;;;;;;;2.52;100.00;100096.75;434244;1287;207607;-64
2022/11/26 04:49:47;;;;;;;75.80;45.20;;;;;;;2.58;100.00;100096.45;428396;1286;152230;-64
2022/11/26 04:59:53;;;;;;;94.20;49.30;;;;;;;2.56;100.00;100103.23;432627;1289;144577;-63
2022/11/26 05:09:59;;;;;;;83.00;45.00;;;;;;;2.58;100.00;100111.83;434694;1285;143194;-63
2022/11/26 05:20:06;;;;;;;85.70;45.20;;;;;;;2.63;100.00;100123.13;434682;1294;143690;-63
2022/11/26 05:30:13;;;;;;;81.60;44.60;;;;;;;2.68;100.00;100126.83;434027;1285;143146;-63
2022/11/26 05:40:17;;;;;;;;;;;;;;;2.70;100.00;100134.55;434933;1285;144290;-63
2022/11/26 05:50:23;;;;;;;84.80;45.20;;;;;;;2.66;100.00;100145.87;435023;1292;128441;-63
2022/11/26 06:00:28;;;;;;;102.10;48.50;;;;;;;2.64;100.00;100153.88;434040;1295;145103;-63
2022/11/26 06:10:34;;;;;;;91.40;47.50;;;;;;;2.61;100.00;100166.91;433882;1293;144510;-63
2022/11/26 06:20:40;;;;;;;88.00;43.10;;;;;;;2.62;100.00;100174.98;432666;1285;143164;-64
2022/11/26 06:30:47;;;;;;;87.30;44.70;;;;;;;2.63;100.00;100183.80;434866;1285;154179;-63
2022/11/26 06:40:59;;;;;;;87.50;44.70;;;;;;;2.65;100.00;100193.79;434964;1285;144944;-62
2022/11/26 06:51:07;;;;;;;85.80;43.10;;;;;;;2.69;100.00;100207.72;433972;1286;164033;-63
2022/11/26 07:01:14;;;;;;;99.10;42.90;;;;;;;2.69;100.00;100221.86;434704;1288;143404;-63
2022/11/26 07:11:21;;;;;;;84.50;43.40;;;;;;;2.69;100.00;100230.17;434770;1288;143811;-64
2022/11/26 07:21:28;;;;;;;75.70;41.90;;;;;;;2.70;100.00;100232.40;429959;1284;144347;-63
2022/11/26 07:31:35;;;;;;;76.70;41.60;;;;;;;2.73;100.00;100242.19;422444;1287;143908;-63
2022/11/26 07:41:41;;;;;;;70.40;35.50;;;;;;;2.73;100.00;100247.21;420173;1284;143749;-66
2022/11/26 07:51:46;;;;;;;69.80;36.10;;;;;;;2.75;100.00;100247.67;419589;1286;153723;-63
2022/11/26 08:01:52;;;;;;;58.80;31.30;;;;;;;2.76;100.00;100258.55;418628;1279;146258;-63
2022/11/26 08:11:58;;;;;;;65.60;36.20;;;;;;;2.73;100.00;100268.30;418145;1286;146694;-64
2022/11/26 08:22:04;;;;;;;53.90;32.50;;;;;;;2.73;100.00;100273.83;419536;1282;143393;-63
2022/11/26 08:32:09;;;;;;;53.70;27.40;;;;;;;2.67;100.00;100290.03;418663;1284;146211;-63
2022/11/26 08:42:15;;;;;;;59.60;29.60;;;;;;;2.70;100.00;100305.01;433326;1285;142906;-64
2022/11/26 08:52:21;;;;;;;49.30;27.00;;;;;;;2.81;100.00;100317.77;434696;1289;143212;-64
2022/11/26 09:02:26;;;;;;;53.60;29.40;;;;;;;2.79;100.00;100329.04;434796;1285;144257;-63
2022/11/26 09:12:32;;;;;;;56.20;29.80;;;;;;;2.76;100.00;100343.45;434024;1283;151451;-64
2022/11/26 09:22:38;;;;;;;52.30;31.30;;;;;;;2.74;100.00;100353.02;434916;1288;144527;-65
2022/11/26 09:32:43;;;;;;;51.60;32.30;;;;;;;2.68;100.00;100357.27;434115;1286;142690;-65
2022/11/26 09:42:56;;;;;;;49.70;30.00;;;;;;;2.64;100.00;100369.27;434808;1280;143045;-66
2022/11/26 09:53:12;;;;;;;48.60;26.00;;;;;;;2.59;100.00;100368.49;434853;1283;143733;-64
2022/11/26 10:03:19;;;;;;;42.90;23.70;;;;;;;2.59;100.00;100373.67;434075;1282;143597;-64
2022/11/26 10:13:34;;;;;;;29.30;16.00;;;;;;;2.61;100.00;100375.73;434842;1288;143165;-64
2022/11/26 10:23:45;;;;;;;22.10;13.70;;;;;;;2.62;100.00;100377.42;434481;1284;145557;-64
2022/11/26 10:33:57;;;;;;;38.00;20.80;;;;;;;2.56;100.00;100380.64;430912;1287;146016;-64
2022/11/26 10:44:29;;;;;;;32.00;19.20;;;;;;;2.46;100.00;100392.92;434743;1288;143041;-63
2022/11/26 10:54:36;;;;;;;33.30;20.10;;;;;;;2.30;100.00;100396.47;434022;1279;142927;-64
2022/11/26 11:04:47;;;;;;;34.90;20.70;;;;;;;2.28;100.00;100402.92;434643;1286;201459;-63
2022/11/26 11:14:53;;;;;;;39.20;21.20;;;;;;;2.14;100.00;100406.59;431890;1282;143133;-63
2022/11/26 11:25:00;;;;;;;35.30;21.20;;;;;;;2.05;100.00;100414.16;434832;1281;143175;-64
2022/11/26 11:35:24;;;;;;;42.00;24.00;;;;;;;1.98;100.00;100419.61;434645;1287;143318;-64
2022/11/26 11:45:40;;;;;;;35.50;20.10;;;;;;;1.89;100.00;100425.45;434167;1280;183887;-64
2022/11/26 11:55:56;;;;;;;37.90;20.80;;;;;;;1.89;100.00;100430.95;434742;1289;143807;-63
2022/11/26 12:06:18;;;;;;;58.80;32.00;;;;;;;1.77;100.00;100445.64;434140;1286;142243;-64
2022/11/26 12:16:28;;;;;;;42.60;23.50;;;;;;;1.74;100.00;100447.23;434804;1278;142399;-65
2022/11/26 12:26:38;;;;;;;44.00;24.10;;;;;;;1.71;100.00;100454.19;434694;1288;143362;-64
2022/11/26 12:36:51;;;;;;;40.70;22.70;;;;;;;1.64;100.00;100459.46;434303;1285;144606;-64
2022/11/26 12:47:06;;;;;;;41.10;20.90;;;;;;;1.49;99.96;100466.02;434738;1287;143220;-63
2022/11/26 12:57:20;;;;;;;39.00;21.30;;;;;;;1.32;99.77;100471.40;433974;1286;143310;-63
2022/11/26 13:07:42;;;;;;;32.50;19.90;;;;;;;1.11;99.26;100478.36;434813;1292;142678;-64
2022/11/26 13:17:49;;;;;;;32.80;18.60;;;;;;;1.06;99.11;100492.55;434003;1281;142621;-64
2022/11/26 13:28:07;;;;;;;30.30;18.30;;;;;;;0.79;98.22;100509.70;434241;1279;143048;-65
2022/11/26 13:38:25;;;;;;;31.00;17.60;;;;;;;0.50;98.13;100520.27;434676;1287;141997;-65
2022/11/26 13:48:40;;;;;;;40.50;22.40;;;;;;;0.18;97.96;100535.31;434096;1286;142602;-65
2022/11/26 13:58:52;;;;;;;36.30;21.20;;;;;;;-0.11;97.95;100548.88;434768;1283;142872;-64
2022/11/26 14:08:58;;;;;;;35.60;22.30;;;;;;;-0.33;97.53;100550.88;434011;1286;143445;-65
2022/11/26 14:19:03;;;;;;;41.00;26.60;;;;;;;-0.59;97.11;100564.02;434818;1287;143079;-64
2022/11/26 14:29:17;;;;;;;40.60;25.80;;;;;;;-0.86;97.10;100575.58;429856;1288;143802;-63
2022/11/26 14:39:23;;;;;;;40.80;24.70;;;;;;;-0.96;97.49;100587.11;434024;1286;142254;-64
2022/11/26 14:49:38;;;;;;;38.60;26.10;;;;;;;-1.14;97.34;100580.93;434776;1287;142557;-63
2022/11/26 14:59:58;;;;;;;43.90;25.20;;;;;;;-1.39;97.18;100589.16;434115;1289;144707;-64
2022/11/26 15:10:16;;;;;;;50.70;26.50;;;;;;;-1.48;97.62;100599.63;434729;1280;145586;-64
2022/11/26 15:20:23;;;;;;;43.90;27.10;;;;;;;-1.62;97.55;100611.27;434776;1281;142521;-65
2022/11/26 15:30:28;;;;;;;;;;;;;;;-1.69;97.64;100616.58;430460;1287;143798;-64
2022/11/26 15:40:47;;;;;;;38.20;24.30;;;;;;;-1.68;97.77;100622.41;428309;1286;129231;-64
2022/11/26 15:50:55;;;;;;;45.00;25.40;;;;;;;-1.66;98.08;100628.94;419579;1285;144678;-65
2022/11/26 16:01:05;;;;;;;45.00;25.70;;;;;;;-1.71;98.14;100619.14;417735;1287;142497;-65
2022/11/26 16:11:22;;;;;;;48.90;27.30;;;;;;;-1.81;98.12;100630.79;421694;1285;143470;-64
2022/11/26 16:21:30;;;;;;;41.20;26.20;;;;;;;-1.90;98.28;100628.86;418941;1286;142798;-66
2022/11/26 16:31:36;;;;;;;48.00;28.20;;;;;;;-1.97;98.04;100635.02;418657;1287;141801;-63
2022/11/26 16:41:41;;;;;;;46.10;26.80;;;;;;;-2.07;98.30;100655.73;417910;1279;142264;-66
2022/11/26 16:51:47;;;;;;;54.10;31.90;;;;;;;-2.00;98.83;100674.64;419656;1281;141520;-64
2022/11/26 17:01:53;;;;;;;56.20;31.30;;;;;;;-1.92;98.66;100680.19;427143;1287;143293;-65
2022/11/26 17:11:58;;;;;;;46.80;26.40;;;;;;;-1.85;99.01;100685.36;429542;1285;148615;-64
2022/11/26 17:22:04;;;;;;;50.90;29.90;;;;;;;-1.79;98.68;100682.12;420064;1285;143742;-64
2022/11/26 17:32:13;;;;;;;49.80;29.90;;;;;;;-1.77;98.94;100686.95;419163;1286;143272;-64
2022/11/26 17:42:20;;;;;;;44.20;27.50;;;;;;;-1.71;98.96;100683.02;421226;1286;141850;-65
2022/11/26 17:52:26;;;;;;;48.10;27.10;;;;;;;-1.71;98.70;100684.21;420944;1285;143475;-64
2022/11/26 18:02:31;;;;;;;44.70;26.80;;;;;;;-1.71;98.46;100692.80;420465;1287;143200;-63
2022/11/26 18:12:37;;;;;;;46.50;26.10;;;;;;;-1.70;98.61;100711.17;420960;1285;142972;-64
2022/11/26 18:22:43;;;;;;;52.10;30.50;;;;;;;-1.63;98.85;100697.64;419372;1289;141905;-64
2022/11/26 18:32:49;;;;;;;57.70;31.90;;;;;;;-1.57;98.88;100696.64;420375;1287;143182;-65
2022/11/26 18:42:55;;;;;;;51.90;33.00;;;;;;;-1.52;99.23;100713.48;419245;1286;142506;-66
2022/11/26 18:53:01;;;;;;;58.70;32.00;;;;;;;-1.46;98.93;100737.89;420924;1292;142698;-64
2022/11/26 19:03:06;;;;;;;41.60;24.30;;;;;;;-1.50;99.17;100751.27;418297;1285;142884;-65
2022/11/26 19:13:12;;;;;;;61.30;35.30;;;;;;;-1.49;99.42;100756.60;418562;1286;142424;-64
2022/11/26 19:23:23;;;;;;;58.20;34.10;;;;;;;-1.45;99.52;100751.64;419560;1287;143137;-66
2022/11/26 19:33:28;;;;;;;51.60;30.20;;;;;;;-1.40;99.40;100749.08;419766;1286;143020;-64
2022/11/26 19:43:37;;;;;;;47.60;28.60;;;;;;;-1.40;99.38;100749.08;418859;1287;142241;-66
2022/11/26 19:53:46;;;;;;;44.40;29.00;;;;;;;-1.36;99.33;100751.84;417692;1286;186788;-65
2022/11/26 20:03:52;;;;;;;45.80;29.10;;;;;;;-1.35;99.42;100759.23;434430;1296;143481;-64
2022/11/26 20:13:58;;;;;;;50.20;29.50;;;;;;;-1.33;99.27;100768.35;432081;1285;143298;-67
2022/11/26 20:24:08;;;;;;;38.90;26.20;;;;;;;-1.33;99.15;100773.34;417637;1285;142440;-67
2022/11/26 20:34:16;;;;;;;47.20;29.40;;;;;;;-1.33;99.33;100777.95;434672;1294;143435;-66
2022/11/26 20:44:23;;;;;;;44.90;25.70;;;;;;;-1.36;99.28;100776.07;434935;1288;142783;-66
2022/11/26 20:54:30;;;;;;;46.80;25.70;;;;;;;-1.31;99.26;100783.81;431807;1288;142977;-66
2022/11/26 21:04:36;;;;;;;42.60;26.50;;;;;;;-1.23;99.19;100786.08;423174;1292;143776;-66
2022/11/26 21:14:42;;;;;;;42.80;26.10;;;;;;;-1.21;99.11;100788.67;434022;1292;142816;-66
2022/11/26 21:24:47;;;;;;;41.80;25.20;;;;;;;-1.22;99.22;100789.53;434775;1294;143377;-66
2022/11/26 21:34:53;;;;;;;42.50;28.40;;;;;;;-1.18;99.50;100797.79;434793;1295;143237;-66
2022/11/26 21:44:59;;;;;;;43.60;26.40;;;;;;;-1.16;99.66;100793.16;434156;1286;143910;-67
2022/11/26 21:55:05;;;;;;;39.70;24.70;;;;;;;-1.11;99.48;100791.28;433608;1286;143314;-66
2022/11/26 22:05:11;;;;;;;41.00;26.90;;;;;;;-1.06;99.58;100789.59;434806;1286;142536;-66
2022/11/26 22:15:17;;;;;;;43.10;26.10;;;;;;;-1.04;99.76;100800.07;434126;1289;142875;-65
2022/11/26 22:25:22;;;;;;;40.80;24.80;;;;;;;-0.96;99.69;100795.11;434703;1287;142715;-67
2022/11/26 22:35:28;;;;;;;43.80;25.90;;;;;;;-0.98;99.54;100808.34;434892;1291;142986;-68
2022/11/26 22:45:36;;;;;;;45.80;28.50;;;;;;;-0.96;99.70;100814.36;433960;1289;144511;-66
2022/11/26 22:55:50;;;;;;;38.30;25.90;;;;;;;-0.87;99.77;100810.09;434864;1288;142483;-66
2022/11/26 23:06:01;;;;;;;46.40;27.60;;;;;;;-0.81;99.63;100809.42;434046;1285;144580;-65
2022/11/26 23:16:09;;;;;;;42.80;26.60;;;;;;;-0.79;99.69;100804.80;434768;1292;141584;-65
2022/11/26 23:26:18;;;;;;;50.20;27.60;;;;;;;-0.75;99.76;100796.36;434911;1286;143359;-66
2022/11/26 23:36:31;;;;;;;46.20;30.40;;;;;;;-0.69;99.88;100796.02;434048;1291;143856;-67
2022/11/26 23:46:37;;;;;;;48.30;30.10;;;;;;;-0.66;99.95;100801.36;434814;1286;142903;-67
2022/11/26 23:56:43;;;;;;;46.70;32.70;;;;;;;-0.64;99.63;100792.60;430224;1285;143712;-66
